sensor_id;sensor_type;location;lat;lon;timestamp;P1;durP1;ratioP1;P2;durP2;ratioP2
53505;SDS011;39388;50.936;6.848;2023-03-01T00:01:26;9.27;;;7.53;;
53505;SDS011;39388;50.936;6.848;2023-03-01T00:03:58;9.38;;;7.00;;
53505;SDS011;39388;50.936;6.848;2023-03-01T00:06:29;7.93;;;6.93;;
53505;SDS011;39388;50.936;6.848;2023-03-01T00:08:59;7.82;;;7.03;;
53505;SDS011;39388;50.936;6.848;2023-03-01T00:11:30;8.00;;;7.18;;
53505;SDS011;39388;50.936;6.848;2023-03-01T00:14:02;8.00;;;7.00;;
53505;SDS011;39388;50.936;6.848;2023-03-01T00:16:35;8.02;;;7.00;;
53505;SDS011;39388;50.936;6.848;2023-03-01T00:19:16;8.25;;;7.45;;
53505;SDS011;39388;50.936;6.848;2023-03-01T00:21:48;9.18;;;7.32;;
53505;SDS011;39388;50.936;6.848;2023-03-01T00:24:18;7.72;;;6.70;;
53505;SDS011;39388;50.936;6.848;2023-03-01T00:26:52;8.88;;;7.30;;
53505;SDS011;39388;50.936;6.848;2023-03-01T00:29:25;8.52;;;7.18;;
53505;SDS011;39388;50.936;6.848;2023-03-01T00:31:55;8.52;;;7.30;;
53505;SDS011;39388;50.936;6.848;2023-03-01T00:34:25;9.63;;;7.68;;
53505;SDS011;39388;50.936;6.848;2023-03-01T00:36:56;8.95;;;7.35;;
53505;SDS011;39388;50.936;6.848;2023-03-01T00:39:34;9.60;;;7.45;;
53505;SDS011;39388;50.936;6.848;2023-03-01T00:42:05;8.70;;;7.50;;
53505;SDS011;39388;50.936;6.848;2023-03-01T00:44:35;8.77;;;7.70;;
53505;SDS011;39388;50.936;6.848;2023-03-01T00:47:05;11.20;;;7.90;;
53505;SDS011;39388;50.936;6.848;2023-03-01T00:49:36;8.45;;;7.65;;
53505;SDS011;39388;50.936;6.848;2023-03-01T00:52:06;11.00;;;7.75;;
53505;SDS011;39388;50.936;6.848;2023-03-01T00:54:37;9.82;;;7.70;;
53505;SDS011;39388;50.936;6.848;2023-03-01T00:57:07;11.88;;;8.27;;
53505;SDS011;39388;50.936;6.848;2023-03-01T00:59:37;8.60;;;7.65;;
53505;SDS011;39388;50.936;6.848;2023-03-01T01:02:08;10.25;;;8.52;;
53505;SDS011;39388;50.936;6.848;2023-03-01T01:04:38;8.88;;;7.72;;
53505;SDS011;39388;50.936;6.848;2023-03-01T01:07:08;10.18;;;7.75;;
53505;SDS011;39388;50.936;6.848;2023-03-01T01:09:39;13.50;;;8.80;;
53505;SDS011;39388;50.936;6.848;2023-03-01T01:12:09;11.95;;;9.15;;
53505;SDS011;39388;50.936;6.848;2023-03-01T01:14:40;12.43;;;9.68;;
53505;SDS011;39388;50.936;6.848;2023-03-01T01:17:10;12.50;;;8.40;;
53505;SDS011;39388;50.936;6.848;2023-03-01T01:19:40;13.27;;;8.98;;
53505;SDS011;39388;50.936;6.848;2023-03-01T01:22:11;10.32;;;8.70;;
53505;SDS011;39388;50.936;6.848;2023-03-01T01:24:41;10.70;;;8.27;;
53505;SDS011;39388;50.936;6.848;2023-03-01T01:27:12;12.07;;;8.23;;
53505;SDS011;39388;50.936;6.848;2023-03-01T01:29:42;14.38;;;8.60;;
53505;SDS011;39388;50.936;6.848;2023-03-01T01:32:12;10.55;;;8.35;;
53505;SDS011;39388;50.936;6.848;2023-03-01T01:34:43;10.48;;;8.45;;
53505;SDS011;39388;50.936;6.848;2023-03-01T01:37:13;13.10;;;8.48;;
53505;SDS011;39388;50.936;6.848;2023-03-01T01:39:43;11.10;;;8.75;;
53505;SDS011;39388;50.936;6.848;2023-03-01T01:42:17;11.70;;;8.65;;
53505;SDS011;39388;50.936;6.848;2023-03-01T01:44:48;11.00;;;8.65;;
53505;SDS011;39388;50.936;6.848;2023-03-01T01:47:58;10.85;;;7.80;;
53505;SDS011;39388;50.936;6.848;2023-03-01T01:50:42;9.65;;;8.00;;
53505;SDS011;39388;50.936;6.848;2023-03-01T01:53:15;10.48;;;9.00;;
53505;SDS011;39388;50.936;6.848;2023-03-01T01:55:51;10.38;;;8.80;;
53505;SDS011;39388;50.936;6.848;2023-03-01T01:58:27;9.85;;;8.68;;
53505;SDS011;39388;50.936;6.848;2023-03-01T02:01:00;11.27;;;8.30;;
53505;SDS011;39388;50.936;6.848;2023-03-01T02:03:34;9.35;;;8.45;;
53505;SDS011;39388;50.936;6.848;2023-03-01T02:09:00;10.77;;;8.32;;
53505;SDS011;39388;50.936;6.848;2023-03-01T02:11:35;11.80;;;8.45;;
53505;SDS011;39388;50.936;6.848;2023-03-01T02:14:07;11.27;;;8.38;;
53505;SDS011;39388;50.936;6.848;2023-03-01T02:16:37;10.70;;;8.50;;
53505;SDS011;39388;50.936;6.848;2023-03-01T02:19:09;10.35;;;8.65;;
53505;SDS011;39388;50.936;6.848;2023-03-01T02:27:32;10.80;;;8.77;;
53505;SDS011;39388;50.936;6.848;2023-03-01T02:30:08;9.77;;;8.13;;
53505;SDS011;39388;50.936;6.848;2023-03-01T02:32:42;11.98;;;8.80;;
53505;SDS011;39388;50.936;6.848;2023-03-01T02:35:13;9.90;;;8.25;;
53505;SDS011;39388;50.936;6.848;2023-03-01T02:40:17;10.65;;;9.05;;
53505;SDS011;39388;50.936;6.848;2023-03-01T02:42:54;11.18;;;8.65;;
53505;SDS011;39388;50.936;6.848;2023-03-01T02:45:27;12.10;;;8.65;;
53505;SDS011;39388;50.936;6.848;2023-03-01T02:47:57;9.93;;;8.50;;
53505;SDS011;39388;50.936;6.848;2023-03-01T02:55:53;12.93;;;9.18;;
53505;SDS011;39388;50.936;6.848;2023-03-01T02:58:23;13.52;;;9.60;;
53505;SDS011;39388;50.936;6.848;2023-03-01T03:00:54;10.30;;;9.23;;
53505;SDS011;39388;50.936;6.848;2023-03-01T03:03:26;14.57;;;9.88;;
53505;SDS011;39388;50.936;6.848;2023-03-01T03:05:56;10.85;;;9.05;;
53505;SDS011;39388;50.936;6.848;2023-03-01T03:08:27;10.10;;;9.00;;
53505;SDS011;39388;50.936;6.848;2023-03-01T03:10:57;10.50;;;9.18;;
53505;SDS011;39388;50.936;6.848;2023-03-01T03:13:28;10.40;;;9.18;;
53505;SDS011;39388;50.936;6.848;2023-03-01T03:15:58;10.82;;;9.82;;
53505;SDS011;39388;50.936;6.848;2023-03-01T03:18:29;11.32;;;8.85;;
53505;SDS011;39388;50.936;6.848;2023-03-01T03:20:59;10.15;;;8.65;;
53505;SDS011;39388;50.936;6.848;2023-03-01T03:23:29;13.20;;;8.82;;
53505;SDS011;39388;50.936;6.848;2023-03-01T03:26:00;11.05;;;8.82;;
53505;SDS011;39388;50.936;6.848;2023-03-01T03:28:30;11.02;;;9.32;;
53505;SDS011;39388;50.936;6.848;2023-03-01T03:31:02;13.98;;;9.05;;
53505;SDS011;39388;50.936;6.848;2023-03-01T03:33:36;10.95;;;9.23;;
53505;SDS011;39388;50.936;6.848;2023-03-01T03:36:07;11.00;;;9.40;;
53505;SDS011;39388;50.936;6.848;2023-03-01T03:38:43;12.45;;;9.05;;
53505;SDS011;39388;50.936;6.848;2023-03-01T03:41:15;13.52;;;9.88;;
53505;SDS011;39388;50.936;6.848;2023-03-01T03:43:46;15.18;;;8.90;;
53505;SDS011;39388;50.936;6.848;2023-03-01T03:46:18;11.43;;;9.55;;
53505;SDS011;39388;50.936;6.848;2023-03-01T03:48:49;11.07;;;9.15;;
53505;SDS011;39388;50.936;6.848;2023-03-01T03:51:19;12.15;;;8.55;;
53505;SDS011;39388;50.936;6.848;2023-03-01T03:53:52;10.73;;;9.60;;
53505;SDS011;39388;50.936;6.848;2023-03-01T03:56:22;11.63;;;9.52;;
53505;SDS011;39388;50.936;6.848;2023-03-01T03:58:55;11.98;;;9.48;;
53505;SDS011;39388;50.936;6.848;2023-03-01T04:01:26;11.73;;;8.98;;
53505;SDS011;39388;50.936;6.848;2023-03-01T04:03:56;12.20;;;9.45;;
53505;SDS011;39388;50.936;6.848;2023-03-01T04:06:32;10.45;;;9.40;;
53505;SDS011;39388;50.936;6.848;2023-03-01T04:09:02;10.07;;;8.80;;
53505;SDS011;39388;50.936;6.848;2023-03-01T04:11:33;10.27;;;8.65;;
53505;SDS011;39388;50.936;6.848;2023-03-01T04:14:04;10.40;;;9.35;;
53505;SDS011;39388;50.936;6.848;2023-03-01T04:16:35;10.13;;;9.07;;
53505;SDS011;39388;50.936;6.848;2023-03-01T04:19:05;9.80;;;8.77;;
53505;SDS011;39388;50.936;6.848;2023-03-01T04:21:36;10.05;;;8.85;;
53505;SDS011;39388;50.936;6.848;2023-03-01T04:24:06;10.52;;;9.43;;
53505;SDS011;39388;50.936;6.848;2023-03-01T04:26:38;12.60;;;9.48;;
53505;SDS011;39388;50.936;6.848;2023-03-01T04:29:09;10.05;;;9.05;;
53505;SDS011;39388;50.936;6.848;2023-03-01T04:31:39;13.18;;;9.23;;
53505;SDS011;39388;50.936;6.848;2023-03-01T04:34:09;10.73;;;9.38;;
53505;SDS011;39388;50.936;6.848;2023-03-01T04:36:40;12.57;;;9.60;;
53505;SDS011;39388;50.936;6.848;2023-03-01T04:39:10;12.27;;;9.57;;
53505;SDS011;39388;50.936;6.848;2023-03-01T04:41:43;12.10;;;9.15;;
53505;SDS011;39388;50.936;6.848;2023-03-01T04:44:14;13.52;;;9.52;;
53505;SDS011;39388;50.936;6.848;2023-03-01T04:46:44;11.95;;;9.10;;
53505;SDS011;39388;50.936;6.848;2023-03-01T04:49:14;11.00;;;9.18;;
53505;SDS011;39388;50.936;6.848;2023-03-01T04:51:45;14.55;;;10.18;;
53505;SDS011;39388;50.936;6.848;2023-03-01T04:54:16;12.32;;;9.63;;
53505;SDS011;39388;50.936;6.848;2023-03-01T04:56:46;11.65;;;9.63;;
53505;SDS011;39388;50.936;6.848;2023-03-01T04:59:16;11.52;;;9.73;;
53505;SDS011;39388;50.936;6.848;2023-03-01T05:01:47;11.20;;;9.45;;
53505;SDS011;39388;50.936;6.848;2023-03-01T05:04:17;11.85;;;9.18;;
53505;SDS011;39388;50.936;6.848;2023-03-01T05:06:48;10.70;;;9.45;;
53505;SDS011;39388;50.936;6.848;2023-03-01T05:09:18;12.15;;;9.75;;
53505;SDS011;39388;50.936;6.848;2023-03-01T05:11:49;10.77;;;9.73;;
53505;SDS011;39388;50.936;6.848;2023-03-01T05:14:20;11.80;;;10.27;;
53505;SDS011;39388;50.936;6.848;2023-03-01T05:16:50;12.48;;;10.35;;
53505;SDS011;39388;50.936;6.848;2023-03-01T05:19:20;10.30;;;9.20;;
53505;SDS011;39388;50.936;6.848;2023-03-01T05:21:52;11.85;;;9.98;;
53505;SDS011;39388;50.936;6.848;2023-03-01T05:24:34;13.48;;;10.63;;
53505;SDS011;39388;50.936;6.848;2023-03-01T05:27:05;12.75;;;10.00;;
53505;SDS011;39388;50.936;6.848;2023-03-01T05:29:36;15.23;;;10.13;;
53505;SDS011;39388;50.936;6.848;2023-03-01T05:32:06;12.05;;;10.40;;
53505;SDS011;39388;50.936;6.848;2023-03-01T05:34:38;13.48;;;10.23;;
53505;SDS011;39388;50.936;6.848;2023-03-01T05:37:09;12.73;;;9.38;;
53505;SDS011;39388;50.936;6.848;2023-03-01T05:39:39;13.27;;;10.68;;
53505;SDS011;39388;50.936;6.848;2023-03-01T05:42:11;13.20;;;10.27;;
53505;SDS011;39388;50.936;6.848;2023-03-01T05:44:42;11.18;;;9.98;;
53505;SDS011;39388;50.936;6.848;2023-03-01T05:47:12;11.60;;;10.07;;
53505;SDS011;39388;50.936;6.848;2023-03-01T05:49:42;13.73;;;10.70;;
53505;SDS011;39388;50.936;6.848;2023-03-01T05:52:13;12.73;;;10.13;;
53505;SDS011;39388;50.936;6.848;2023-03-01T05:54:43;14.32;;;10.75;;
53505;SDS011;39388;50.936;6.848;2023-03-01T05:57:13;12.63;;;10.50;;
53505;SDS011;39388;50.936;6.848;2023-03-01T05:59:45;12.48;;;10.63;;
53505;SDS011;39388;50.936;6.848;2023-03-01T06:02:15;11.32;;;10.05;;
53505;SDS011;39388;50.936;6.848;2023-03-01T06:04:46;11.57;;;10.10;;
53505;SDS011;39388;50.936;6.848;2023-03-01T06:07:16;12.25;;;11.00;;
53505;SDS011;39388;50.936;6.848;2023-03-01T06:09:46;14.45;;;10.07;;
53505;SDS011;39388;50.936;6.848;2023-03-01T06:12:17;14.68;;;10.15;;
53505;SDS011;39388;50.936;6.848;2023-03-01T06:14:47;11.60;;;10.00;;
53505;SDS011;39388;50.936;6.848;2023-03-01T06:17:18;12.57;;;10.35;;
53505;SDS011;39388;50.936;6.848;2023-03-01T06:19:48;11.85;;;9.80;;
53505;SDS011;39388;50.936;6.848;2023-03-01T06:22:18;13.70;;;10.90;;
53505;SDS011;39388;50.936;6.848;2023-03-01T06:24:49;14.02;;;9.90;;
53505;SDS011;39388;50.936;6.848;2023-03-01T06:27:19;12.10;;;10.32;;
53505;SDS011;39388;50.936;6.848;2023-03-01T06:29:50;12.32;;;10.23;;
53505;SDS011;39388;50.936;6.848;2023-03-01T06:32:20;11.65;;;10.35;;
53505;SDS011;39388;50.936;6.848;2023-03-01T06:34:51;13.02;;;10.90;;
53505;SDS011;39388;50.936;6.848;2023-03-01T06:37:21;11.82;;;10.55;;
53505;SDS011;39388;50.936;6.848;2023-03-01T06:39:52;12.75;;;10.48;;
53505;SDS011;39388;50.936;6.848;2023-03-01T06:42:22;12.88;;;11.52;;
53505;SDS011;39388;50.936;6.848;2023-03-01T06:44:52;12.68;;;10.85;;
53505;SDS011;39388;50.936;6.848;2023-03-01T06:47:23;14.85;;;11.05;;
53505;SDS011;39388;50.936;6.848;2023-03-01T06:49:53;12.70;;;10.70;;
53505;SDS011;39388;50.936;6.848;2023-03-01T06:52:23;16.90;;;11.70;;
53505;SDS011;39388;50.936;6.848;2023-03-01T06:54:54;13.40;;;10.77;;
53505;SDS011;39388;50.936;6.848;2023-03-01T06:57:24;14.15;;;11.15;;
53505;SDS011;39388;50.936;6.848;2023-03-01T06:59:55;14.43;;;11.35;;
53505;SDS011;39388;50.936;6.848;2023-03-01T07:02:25;13.05;;;10.88;;
53505;SDS011;39388;50.936;6.848;2023-03-01T07:04:55;12.93;;;10.52;;
53505;SDS011;39388;50.936;6.848;2023-03-01T07:07:26;13.68;;;10.65;;
53505;SDS011;39388;50.936;6.848;2023-03-01T07:09:56;13.70;;;11.30;;
53505;SDS011;39388;50.936;6.848;2023-03-01T07:12:26;14.13;;;11.18;;
53505;SDS011;39388;50.936;6.848;2023-03-01T07:14:57;13.18;;;10.60;;
53505;SDS011;39388;50.936;6.848;2023-03-01T07:17:27;14.30;;;11.00;;
53505;SDS011;39388;50.936;6.848;2023-03-01T07:19:57;15.60;;;10.85;;
53505;SDS011;39388;50.936;6.848;2023-03-01T07:22:28;13.98;;;10.90;;
53505;SDS011;39388;50.936;6.848;2023-03-01T07:24:58;12.80;;;10.55;;
53505;SDS011;39388;50.936;6.848;2023-03-01T07:27:28;13.32;;;11.10;;
53505;SDS011;39388;50.936;6.848;2023-03-01T07:29:59;15.05;;;11.38;;
53505;SDS011;39388;50.936;6.848;2023-03-01T07:32:30;12.68;;;10.38;;
53505;SDS011;39388;50.936;6.848;2023-03-01T07:35:00;15.57;;;11.40;;
53505;SDS011;39388;50.936;6.848;2023-03-01T07:37:30;12.48;;;11.13;;
53505;SDS011;39388;50.936;6.848;2023-03-01T07:40:01;14.00;;;10.63;;
53505;SDS011;39388;50.936;6.848;2023-03-01T07:42:31;13.10;;;10.93;;
53505;SDS011;39388;50.936;6.848;2023-03-01T07:45:02;14.73;;;10.77;;
53505;SDS011;39388;50.936;6.848;2023-03-01T07:47:34;15.48;;;11.02;;
53505;SDS011;39388;50.936;6.848;2023-03-01T07:50:05;13.75;;;10.60;;
53505;SDS011;39388;50.936;6.848;2023-03-01T07:52:36;13.18;;;10.35;;
53505;SDS011;39388;50.936;6.848;2023-03-01T07:55:06;14.50;;;10.63;;
53505;SDS011;39388;50.936;6.848;2023-03-01T07:57:37;14.30;;;10.02;;
53505;SDS011;39388;50.936;6.848;2023-03-01T08:00:10;14.40;;;10.73;;
53505;SDS011;39388;50.936;6.848;2023-03-01T08:02:41;14.90;;;10.25;;
53505;SDS011;39388;50.936;6.848;2023-03-01T08:05:11;17.92;;;10.52;;
53505;SDS011;39388;50.936;6.848;2023-03-01T08:07:42;13.63;;;9.88;;
53505;SDS011;39388;50.936;6.848;2023-03-01T08:10:12;12.35;;;9.88;;
53505;SDS011;39388;50.936;6.848;2023-03-01T08:12:42;16.50;;;11.68;;
53505;SDS011;39388;50.936;6.848;2023-03-01T08:15:13;16.65;;;10.85;;
53505;SDS011;39388;50.936;6.848;2023-03-01T08:17:43;14.18;;;10.50;;
53505;SDS011;39388;50.936;6.848;2023-03-01T08:20:14;12.73;;;10.38;;
53505;SDS011;39388;50.936;6.848;2023-03-01T08:22:44;14.75;;;10.75;;
53505;SDS011;39388;50.936;6.848;2023-03-01T08:25:15;12.40;;;9.40;;
53505;SDS011;39388;50.936;6.848;2023-03-01T08:27:45;13.35;;;10.07;;
53505;SDS011;39388;50.936;6.848;2023-03-01T08:30:15;14.15;;;10.38;;
53505;SDS011;39388;50.936;6.848;2023-03-01T08:32:46;15.73;;;11.15;;
53505;SDS011;39388;50.936;6.848;2023-03-01T08:35:17;13.55;;;10.70;;
53505;SDS011;39388;50.936;6.848;2023-03-01T08:37:48;14.45;;;10.10;;
53505;SDS011;39388;50.936;6.848;2023-03-01T08:40:18;13.25;;;9.68;;
53505;SDS011;39388;50.936;6.848;2023-03-01T08:42:49;12.85;;;10.60;;
53505;SDS011;39388;50.936;6.848;2023-03-01T08:45:19;15.63;;;9.75;;
53505;SDS011;39388;50.936;6.848;2023-03-01T08:47:51;13.60;;;10.63;;
53505;SDS011;39388;50.936;6.848;2023-03-01T08:50:23;12.88;;;9.77;;
53505;SDS011;39388;50.936;6.848;2023-03-01T08:52:54;18.17;;;10.60;;
53505;SDS011;39388;50.936;6.848;2023-03-01T08:55:24;15.73;;;10.98;;
53505;SDS011;39388;50.936;6.848;2023-03-01T08:57:55;14.05;;;10.30;;
53505;SDS011;39388;50.936;6.848;2023-03-01T09:00:25;14.32;;;8.95;;
53505;SDS011;39388;50.936;6.848;2023-03-01T09:02:55;13.45;;;10.52;;
53505;SDS011;39388;50.936;6.848;2023-03-01T09:05:26;13.15;;;10.15;;
53505;SDS011;39388;50.936;6.848;2023-03-01T09:07:56;16.13;;;10.65;;
53505;SDS011;39388;50.936;6.848;2023-03-01T09:10:27;15.32;;;10.25;;
53505;SDS011;39388;50.936;6.848;2023-03-01T09:12:57;13.77;;;10.38;;
53505;SDS011;39388;50.936;6.848;2023-03-01T09:15:28;13.65;;;9.27;;
53505;SDS011;39388;50.936;6.848;2023-03-01T09:17:58;13.45;;;9.98;;
53505;SDS011;39388;50.936;6.848;2023-03-01T09:20:29;12.23;;;9.25;;
53505;SDS011;39388;50.936;6.848;2023-03-01T09:23:01;13.65;;;7.82;;
53505;SDS011;39388;50.936;6.848;2023-03-01T09:25:31;14.88;;;9.02;;
53505;SDS011;39388;50.936;6.848;2023-03-01T09:28:01;13.35;;;9.25;;
53505;SDS011;39388;50.936;6.848;2023-03-01T09:30:32;12.45;;;9.68;;
53505;SDS011;39388;50.936;6.848;2023-03-01T09:33:02;11.48;;;8.20;;
53505;SDS011;39388;50.936;6.848;2023-03-01T09:35:33;13.55;;;8.82;;
53505;SDS011;39388;50.936;6.848;2023-03-01T09:38:03;11.38;;;8.32;;
53505;SDS011;39388;50.936;6.848;2023-03-01T09:40:34;13.30;;;9.35;;
53505;SDS011;39388;50.936;6.848;2023-03-01T09:46:03;17.90;;;10.55;;
53505;SDS011;39388;50.936;6.848;2023-03-01T09:48:41;13.25;;;8.70;;
53505;SDS011;39388;50.936;6.848;2023-03-01T09:53:47;12.13;;;8.68;;
53505;SDS011;39388;50.936;6.848;2023-03-01T09:56:19;11.43;;;8.40;;
53505;SDS011;39388;50.936;6.848;2023-03-01T10:01:59;9.10;;;6.95;;
53505;SDS011;39388;50.936;6.848;2023-03-01T10:10:05;11.20;;;8.02;;
53505;SDS011;39388;50.936;6.848;2023-03-01T10:12:37;12.90;;;8.52;;
53505;SDS011;39388;50.936;6.848;2023-03-01T10:17:57;12.13;;;8.40;;
53505;SDS011;39388;50.936;6.848;2023-03-01T10:20:47;11.95;;;8.20;;
53505;SDS011;39388;50.936;6.848;2023-03-01T10:23:22;9.85;;;7.60;;
53505;SDS011;39388;50.936;6.848;2023-03-01T10:31:53;10.50;;;8.13;;
53505;SDS011;39388;50.936;6.848;2023-03-01T10:42:38;8.30;;;7.35;;
53505;SDS011;39388;50.936;6.848;2023-03-01T10:45:23;8.90;;;5.90;;
53505;SDS011;39388;50.936;6.848;2023-03-01T10:50:46;15.05;;;8.57;;
53505;SDS011;39388;50.936;6.848;2023-03-01T10:53:29;10.85;;;7.47;;
53505;SDS011;39388;50.936;6.848;2023-03-01T11:01:26;10.45;;;8.27;;
53505;SDS011;39388;50.936;6.848;2023-03-01T11:06:36;10.20;;;7.90;;
53505;SDS011;39388;50.936;6.848;2023-03-01T11:09:21;10.93;;;8.18;;
53505;SDS011;39388;50.936;6.848;2023-03-01T11:11:53;12.15;;;7.85;;
53505;SDS011;39388;50.936;6.848;2023-03-01T11:14:26;11.38;;;7.65;;
53505;SDS011;39388;50.936;6.848;2023-03-01T11:17:00;11.30;;;8.40;;
53505;SDS011;39388;50.936;6.848;2023-03-01T11:19:35;11.00;;;7.80;;
53505;SDS011;39388;50.936;6.848;2023-03-01T11:22:07;9.20;;;7.40;;
53505;SDS011;39388;50.936;6.848;2023-03-01T11:24:46;9.95;;;7.75;;
53505;SDS011;39388;50.936;6.848;2023-03-01T11:27:19;11.20;;;8.48;;
53505;SDS011;39388;50.936;6.848;2023-03-01T11:32:41;10.00;;;8.27;;
53505;SDS011;39388;50.936;6.848;2023-03-01T11:35:19;11.15;;;8.60;;
53505;SDS011;39388;50.936;6.848;2023-03-01T11:40:48;9.52;;;7.65;;
53505;SDS011;39388;50.936;6.848;2023-03-01T11:43:31;11.73;;;7.50;;
53505;SDS011;39388;50.936;6.848;2023-03-01T11:52:15;12.73;;;8.30;;
53505;SDS011;39388;50.936;6.848;2023-03-01T11:55:08;8.70;;;7.13;;
53505;SDS011;39388;50.936;6.848;2023-03-01T12:25:28;12.32;;;7.90;;
53505;SDS011;39388;50.936;6.848;2023-03-01T12:36:53;9.70;;;7.43;;
53505;SDS011;39388;50.936;6.848;2023-03-01T12:48:28;10.40;;;7.70;;
53505;SDS011;39388;50.936;6.848;2023-03-01T12:51:10;9.43;;;7.10;;
53505;SDS011;39388;50.936;6.848;2023-03-01T12:53:47;8.60;;;7.18;;
53505;SDS011;39388;50.936;6.848;2023-03-01T12:56:21;9.23;;;6.80;;
53505;SDS011;39388;50.936;6.848;2023-03-01T12:58:59;9.45;;;6.47;;
53505;SDS011;39388;50.936;6.848;2023-03-01T13:04:17;12.27;;;6.88;;
53505;SDS011;39388;50.936;6.848;2023-03-01T13:26:02;10.02;;;6.50;;
53505;SDS011;39388;50.936;6.848;2023-03-01T13:41:54;8.20;;;6.63;;
53505;SDS011;39388;50.936;6.848;2023-03-01T13:44:32;8.85;;;6.63;;
53505;SDS011;39388;50.936;6.848;2023-03-01T13:49:41;7.82;;;6.07;;
53505;SDS011;39388;50.936;6.848;2023-03-01T13:52:31;9.77;;;7.05;;
53505;SDS011;39388;50.936;6.848;2023-03-01T13:57:41;11.13;;;7.57;;
53505;SDS011;39388;50.936;6.848;2023-03-01T14:03:28;11.50;;;7.43;;
53505;SDS011;39388;50.936;6.848;2023-03-01T14:08:46;9.85;;;6.97;;
53505;SDS011;39388;50.936;6.848;2023-03-01T14:19:26;6.97;;;5.45;;
53505;SDS011;39388;50.936;6.848;2023-03-01T14:22:04;8.55;;;6.35;;
53505;SDS011;39388;50.936;6.848;2023-03-01T14:24:52;9.93;;;6.90;;
53505;SDS011;39388;50.936;6.848;2023-03-01T14:27:26;10.25;;;5.85;;
53505;SDS011;39388;50.936;6.848;2023-03-01T14:30:02;10.55;;;6.03;;
53505;SDS011;39388;50.936;6.848;2023-03-01T14:32:40;7.55;;;5.82;;
53505;SDS011;39388;50.936;6.848;2023-03-01T14:35:19;9.65;;;6.82;;
53505;SDS011;39388;50.936;6.848;2023-03-01T14:38:19;12.73;;;8.30;;
53505;SDS011;39388;50.936;6.848;2023-03-01T14:40:51;8.68;;;5.90;;
53505;SDS011;39388;50.936;6.848;2023-03-01T14:43:27;8.05;;;6.57;;
53505;SDS011;39388;50.936;6.848;2023-03-01T14:45:59;8.25;;;6.18;;
53505;SDS011;39388;50.936;6.848;2023-03-01T14:48:30;6.68;;;5.15;;
53505;SDS011;39388;50.936;6.848;2023-03-01T14:51:01;8.65;;;6.70;;
53505;SDS011;39388;50.936;6.848;2023-03-01T14:53:35;9.60;;;6.10;;
53505;SDS011;39388;50.936;6.848;2023-03-01T14:56:12;10.68;;;6.97;;
53505;SDS011;39388;50.936;6.848;2023-03-01T14:58:44;8.80;;;6.47;;
53505;SDS011;39388;50.936;6.848;2023-03-01T15:01:15;7.70;;;6.10;;
53505;SDS011;39388;50.936;6.848;2023-03-01T15:03:48;8.05;;;6.60;;
53505;SDS011;39388;50.936;6.848;2023-03-01T15:06:20;9.50;;;6.60;;
53505;SDS011;39388;50.936;6.848;2023-03-01T15:08:53;9.88;;;6.85;;
53505;SDS011;39388;50.936;6.848;2023-03-01T15:11:28;8.07;;;6.70;;
53505;SDS011;39388;50.936;6.848;2023-03-01T15:14:05;8.30;;;5.55;;
53505;SDS011;39388;50.936;6.848;2023-03-01T15:17:20;8.38;;;6.20;;
53505;SDS011;39388;50.936;6.848;2023-03-01T15:19:57;9.68;;;6.13;;
53505;SDS011;39388;50.936;6.848;2023-03-01T15:22:28;8.43;;;6.55;;
53505;SDS011;39388;50.936;6.848;2023-03-01T15:24:59;9.60;;;6.15;;
53505;SDS011;39388;50.936;6.848;2023-03-01T15:27:29;8.55;;;4.93;;
53505;SDS011;39388;50.936;6.848;2023-03-01T15:30:00;6.85;;;5.90;;
53505;SDS011;39388;50.936;6.848;2023-03-01T15:32:36;10.88;;;6.47;;
53505;SDS011;39388;50.936;6.848;2023-03-01T15:38:28;8.15;;;5.82;;
53505;SDS011;39388;50.936;6.848;2023-03-01T15:41:19;10.57;;;6.85;;
53505;SDS011;39388;50.936;6.848;2023-03-01T15:44:25;7.35;;;5.22;;
53505;SDS011;39388;50.936;6.848;2023-03-01T15:46:57;6.57;;;4.65;;
53505;SDS011;39388;50.936;6.848;2023-03-01T15:52:13;9.40;;;6.82;;
53505;SDS011;39388;50.936;6.848;2023-03-01T15:55:14;11.75;;;5.65;;
53505;SDS011;39388;50.936;6.848;2023-03-01T15:57:46;7.70;;;6.00;;
53505;SDS011;39388;50.936;6.848;2023-03-01T16:00:17;6.90;;;5.93;;
53505;SDS011;39388;50.936;6.848;2023-03-01T16:02:47;7.22;;;5.72;;
53505;SDS011;39388;50.936;6.848;2023-03-01T16:05:20;6.95;;;5.63;;
53505;SDS011;39388;50.936;6.848;2023-03-01T16:07:53;6.97;;;6.28;;
53505;SDS011;39388;50.936;6.848;2023-03-01T16:10:24;7.50;;;6.15;;
53505;SDS011;39388;50.936;6.848;2023-03-01T16:12:55;9.35;;;6.13;;
53505;SDS011;39388;50.936;6.848;2023-03-01T16:15:29;10.35;;;6.53;;
53505;SDS011;39388;50.936;6.848;2023-03-01T16:18:01;9.80;;;6.28;;
53505;SDS011;39388;50.936;6.848;2023-03-01T16:20:33;10.25;;;5.95;;
53505;SDS011;39388;50.936;6.848;2023-03-01T16:23:05;8.07;;;5.68;;
53505;SDS011;39388;50.936;6.848;2023-03-01T16:25:37;8.30;;;6.00;;
53505;SDS011;39388;50.936;6.848;2023-03-01T16:28:08;9.95;;;6.25;;
53505;SDS011;39388;50.936;6.848;2023-03-01T16:33:15;7.20;;;4.88;;
53505;SDS011;39388;50.936;6.848;2023-03-01T16:35:45;8.25;;;5.28;;
53505;SDS011;39388;50.936;6.848;2023-03-01T16:38:16;5.55;;;4.25;;
53505;SDS011;39388;50.936;6.848;2023-03-01T16:40:47;6.60;;;5.22;;
53505;SDS011;39388;50.936;6.848;2023-03-01T16:45:49;8.32;;;5.90;;
53505;SDS011;39388;50.936;6.848;2023-03-01T16:48:19;7.57;;;5.60;;
53505;SDS011;39388;50.936;6.848;2023-03-01T16:50:59;7.93;;;5.82;;
53505;SDS011;39388;50.936;6.848;2023-03-01T16:53:30;7.45;;;5.05;;
53505;SDS011;39388;50.936;6.848;2023-03-01T16:56:00;9.20;;;5.28;;
53505;SDS011;39388;50.936;6.848;2023-03-01T16:58:31;10.25;;;5.63;;
53505;SDS011;39388;50.936;6.848;2023-03-01T17:01:06;7.07;;;5.10;;
53505;SDS011;39388;50.936;6.848;2023-03-01T17:03:41;6.28;;;4.97;;
53505;SDS011;39388;50.936;6.848;2023-03-01T17:06:14;6.85;;;5.40;;
53505;SDS011;39388;50.936;6.848;2023-03-01T17:08:46;6.00;;;4.85;;
53505;SDS011;39388;50.936;6.848;2023-03-01T17:11:17;6.90;;;5.32;;
53505;SDS011;39388;50.936;6.848;2023-03-01T17:13:49;5.72;;;4.88;;
53505;SDS011;39388;50.936;6.848;2023-03-01T17:16:20;7.32;;;4.97;;
53505;SDS011;39388;50.936;6.848;2023-03-01T17:18:50;6.55;;;5.30;;
53505;SDS011;39388;50.936;6.848;2023-03-01T17:21:21;6.85;;;4.97;;
53505;SDS011;39388;50.936;6.848;2023-03-01T17:23:54;6.20;;;5.53;;
53505;SDS011;39388;50.936;6.848;2023-03-01T17:26:25;8.75;;;6.22;;
53505;SDS011;39388;50.936;6.848;2023-03-01T17:28:56;6.78;;;5.38;;
53505;SDS011;39388;50.936;6.848;2023-03-01T17:31:28;8.15;;;5.43;;
53505;SDS011;39388;50.936;6.848;2023-03-01T17:33:58;5.93;;;4.80;;
53505;SDS011;39388;50.936;6.848;2023-03-01T17:36:29;7.30;;;5.13;;
53505;SDS011;39388;50.936;6.848;2023-03-01T17:39:02;7.07;;;5.30;;
53505;SDS011;39388;50.936;6.848;2023-03-01T17:41:33;9.30;;;5.50;;
53505;SDS011;39388;50.936;6.848;2023-03-01T17:44:03;7.15;;;5.50;;
53505;SDS011;39388;50.936;6.848;2023-03-01T17:46:33;10.32;;;6.07;;
53505;SDS011;39388;50.936;6.848;2023-03-01T17:49:04;7.50;;;5.70;;
53505;SDS011;39388;50.936;6.848;2023-03-01T17:51:34;8.48;;;5.57;;
53505;SDS011;39388;50.936;6.848;2023-03-01T17:54:05;8.80;;;6.30;;
53505;SDS011;39388;50.936;6.848;2023-03-01T17:56:35;8.02;;;5.82;;
53505;SDS011;39388;50.936;6.848;2023-03-01T17:59:07;7.53;;;5.60;;
53505;SDS011;39388;50.936;6.848;2023-03-01T18:01:39;7.03;;;5.80;;
53505;SDS011;39388;50.936;6.848;2023-03-01T18:04:11;8.60;;;5.85;;
53505;SDS011;39388;50.936;6.848;2023-03-01T18:06:42;7.05;;;5.80;;
53505;SDS011;39388;50.936;6.848;2023-03-01T18:09:12;9.90;;;6.22;;